Hundvaag 1 weather for Nov 1998
Month no. 137
Obs.
Da.
Temp. Dew Point Precip. Wind
Speed
Wind gusts Cloud cover Press. Humidity Wind dir. Sunny OPT
01.11.1998 4,3   6,0     0       1  
02.11.1998 0,0   0,0     10       1  
03.11.1998 -1,0   0,0     10       1  
04.11.1998 0,4   0,0     3          
05.11.1998 1,7   7,0     0       1  
06.11.1998 1,9   2,0     5       1  
07.11.1998 2,2   8,0     0          
08.11.1998 5,1   9,0     0          
09.11.1998 6,5   0,0     0          
10.11.1998 6,1   2,0     0          
11.11.1998 3,4   18,0     3       1  
12.11.1998 1,5   1,0     9       1  
13.11.1998 1,7   0,0     10       1  
14.11.1998 4,5   0,0     9          
15.11.1998 2,1   0,0     3       1  
16.11.1998 -0,2   0,0     0       1  
17.11.1998 -2,6   0,0     10       1  
18.11.1998 -2,1   0,0     10       1  
19.11.1998 -2,3   0,0     8          
20.11.1998 -0,7   0,0     0       1  
21.11.1998 4,9   0,0     0          
22.11.1998 6,9   13,0     0       1  
23.11.1998 4,8   16,0     0          
24.11.1998 4,7   0,0     0          
25.11.1998 6,4   0,0     0          
26.11.1998 5,5   0,0     2          
27.11.1998 4,7   6,0     9       1  
28.11.1998 4,0   0,0     0          
29.11.1998 5,0   0,0     0          
30.11.1998 4,8   0,0     0          
                       
Avrg/Sum 2,8   88,0     3,4       15